createdAt,value
2019-05-23T00:05:08.504Z,3.29
2019-05-23T00:16:06.331Z,3.28
2019-05-23T00:27:10.155Z,3.28
2019-05-23T00:38:11.136Z,3.28
2019-05-23T00:49:12.215Z,3.28
2019-05-23T01:00:10.247Z,3.28
2019-05-23T01:11:13.468Z,3.28
2019-05-23T01:22:09.480Z,3.28
2019-05-23T01:33:12.021Z,3.27
2019-05-23T01:44:13.907Z,3.27
2019-05-23T01:55:10.353Z,3.27
2019-05-23T02:06:14.206Z,3.27
2019-05-23T02:17:15.489Z,3.26
2019-05-23T02:28:14.895Z,3.26
2019-05-23T02:39:17.732Z,3.26
2019-05-23T02:50:14.716Z,3.26
2019-05-23T03:01:14.496Z,3.26
2019-05-23T03:12:12.112Z,3.25
2019-05-23T03:23:11.420Z,3.25
2019-05-23T03:34:15.213Z,3.25
2019-05-23T03:45:15.724Z,3.25
2019-05-23T03:56:13.370Z,3.25
2019-05-23T04:07:13.116Z,3.25
2019-05-23T04:18:09.636Z,3.25
2019-05-23T04:29:09.051Z,3.25
2019-05-23T04:40:07.891Z,3.25
2019-05-23T04:51:08.313Z,3.25
2019-05-23T05:02:03.775Z,3.27
2019-05-23T05:13:04.228Z,3.28
2019-05-23T05:24:06.226Z,3.29
2019-05-23T05:35:10.286Z,3.30
2019-05-23T05:46:10.734Z,3.31
2019-05-23T05:57:11.132Z,3.31
2019-05-23T06:08:15.321Z,3.31
2019-05-23T06:19:14.345Z,3.31
2019-05-23T06:30:14.176Z,3.31
2019-05-23T06:41:18.258Z,3.32
2019-05-23T06:52:16.927Z,3.34
2019-05-23T07:03:17.501Z,3.39
2019-05-23T07:14:18.397Z,3.43
2019-05-23T07:25:16.388Z,3.42
2019-05-23T07:36:19.265Z,3.39
2019-05-23T07:47:19.835Z,3.39
2019-05-23T07:58:18.335Z,3.38
2019-05-23T08:09:15.506Z,3.39
2019-05-23T08:20:11.736Z,3.38
2019-05-23T08:31:07.135Z,3.39
2019-05-23T08:42:09.563Z,3.39
2019-05-23T08:53:06.628Z,3.38
2019-05-23T09:03:59.105Z,3.38
2019-05-23T09:14:58.331Z,3.38
2019-05-23T09:25:55.879Z,3.38
2019-05-23T09:36:54.477Z,3.39
2019-05-23T09:47:51.899Z,3.39
2019-05-23T09:58:51.718Z,3.39
2019-05-23T10:09:51.998Z,3.39
2019-05-23T10:20:54.356Z,3.39
2019-05-23T10:31:53.965Z,3.39
2019-05-23T10:42:54.803Z,3.39
2019-05-23T10:53:44.491Z,3.39
2019-05-23T11:04:47.345Z,3.39
2019-05-23T11:15:49.672Z,3.39
2019-05-23T11:26:50.186Z,3.39
2019-05-23T11:37:45.865Z,3.39
2019-05-23T11:48:41.321Z,3.39
2019-05-23T11:59:33.713Z,3.39
2019-05-23T12:10:33.414Z,3.40
2019-05-23T12:21:28.474Z,3.39
2019-05-23T12:32:20.962Z,3.39
2019-05-23T12:43:16.063Z,3.40
2019-05-23T12:54:13.572Z,3.39
2019-05-23T13:05:14.203Z,3.40
2019-05-23T13:16:18.065Z,3.41
2019-05-23T13:27:18.131Z,3.40
2019-05-23T13:38:15.952Z,3.39
2019-05-23T13:49:11.930Z,3.40
2019-05-23T14:00:07.615Z,3.39
2019-05-23T14:11:05.098Z,3.39
2019-05-23T14:22:08.965Z,3.39
2019-05-23T14:33:05.581Z,3.39
2019-05-23T14:43:59.824Z,3.40
2019-05-23T14:54:45.587Z,3.39
2019-05-23T15:05:27.367Z,3.40
2019-05-23T15:16:17.854Z,3.39
2019-05-23T15:27:10.613Z,3.39
2019-05-23T15:38:08.543Z,3.39
2019-05-23T15:49:01.756Z,3.41
2019-05-23T15:59:59.781Z,3.39
2019-05-23T16:10:55.960Z,3.40
2019-05-23T16:21:48.686Z,3.39
2019-05-23T16:32:48.746Z,3.40
2019-05-23T16:43:40.184Z,3.40
2019-05-23T16:54:38.223Z,3.41
2019-05-23T17:05:39.466Z,3.40
2019-05-23T17:16:35.994Z,3.40
2019-05-23T17:27:38.276Z,3.40
2019-05-23T17:38:39.915Z,3.39
2019-05-23T17:49:37.835Z,3.39
2019-05-23T18:00:34.472Z,3.38
2019-05-23T18:11:29.818Z,3.38
2019-05-23T18:22:26.282Z,3.37
2019-05-23T18:33:21.426Z,3.36
2019-05-23T18:44:14.591Z,3.36
2019-05-23T18:55:05.339Z,3.36
2019-05-23T19:06:05.146Z,3.35
2019-05-23T19:16:57.511Z,3.34
2019-05-23T19:27:55.850Z,3.34
2019-05-23T19:38:54.201Z,3.34
2019-05-23T19:49:54.383Z,3.34
2019-05-23T20:00:56.196Z,3.34
2019-05-23T20:11:54.231Z,3.33
2019-05-23T20:22:46.221Z,3.33
2019-05-23T20:33:41.462Z,3.33
2019-05-23T20:44:40.098Z,3.32
2019-05-23T20:55:35.857Z,3.32
2019-05-23T21:06:15.151Z,3.31
2019-05-23T21:17:13.217Z,3.31
2019-05-23T21:28:09.615Z,3.31
2019-05-23T21:39:06.487Z,3.30
2019-05-23T21:50:04.011Z,3.30
2019-05-23T22:01:04.628Z,3.30
2019-05-23T22:12:01.483Z,3.30
2019-05-23T22:22:59.699Z,3.30
2019-05-23T22:34:03.040Z,3.29
2019-05-23T22:44:55.815Z,3.29
2019-05-23T22:55:53.709Z,3.29
2019-05-23T23:06:44.125Z,3.29
2019-05-23T23:17:45.091Z,3.28
2019-05-23T23:28:44.625Z,3.28
2019-05-23T23:39:48.757Z,3.28
2019-05-23T23:50:43.064Z,3.28
